sensor_id;sensor_type;location;lat;lon;timestamp;P1;durP1;ratioP1;P2;durP2;ratioP2
19251;SDS011;9760;50.944;5.304;2023-07-24T00:00:40;11.47;;;6.67;;
19251;SDS011;9760;50.944;5.304;2023-07-24T00:03:06;16.47;;;7.13;;
19251;SDS011;9760;50.944;5.304;2023-07-24T00:05:32;14.77;;;6.90;;
19251;SDS011;9760;50.944;5.304;2023-07-24T00:07:58;13.57;;;6.63;;
19251;SDS011;9760;50.944;5.304;2023-07-24T00:10:24;11.13;;;6.87;;
19251;SDS011;9760;50.944;5.304;2023-07-24T00:12:50;14.47;;;7.20;;
19251;SDS011;9760;50.944;5.304;2023-07-24T00:15:16;13.27;;;7.10;;
19251;SDS011;9760;50.944;5.304;2023-07-24T00:17:41;15.60;;;6.93;;
19251;SDS011;9760;50.944;5.304;2023-07-24T00:20:07;18.93;;;7.83;;
19251;SDS011;9760;50.944;5.304;2023-07-24T00:22:33;14.57;;;6.90;;
19251;SDS011;9760;50.944;5.304;2023-07-24T00:24:59;17.90;;;6.90;;
19251;SDS011;9760;50.944;5.304;2023-07-24T00:27:24;16.07;;;6.80;;
19251;SDS011;9760;50.944;5.304;2023-07-24T00:29:50;13.80;;;6.33;;
19251;SDS011;9760;50.944;5.304;2023-07-24T00:32:15;13.73;;;6.87;;
19251;SDS011;9760;50.944;5.304;2023-07-24T00:34:41;11.33;;;6.10;;
19251;SDS011;9760;50.944;5.304;2023-07-24T00:37:07;11.77;;;6.37;;
19251;SDS011;9760;50.944;5.304;2023-07-24T00:39:32;13.47;;;6.30;;
19251;SDS011;9760;50.944;5.304;2023-07-24T00:41:58;14.53;;;6.13;;
19251;SDS011;9760;50.944;5.304;2023-07-24T00:44:24;13.47;;;5.40;;
19251;SDS011;9760;50.944;5.304;2023-07-24T00:46:49;11.00;;;5.13;;
19251;SDS011;9760;50.944;5.304;2023-07-24T00:49:15;10.20;;;5.00;;
19251;SDS011;9760;50.944;5.304;2023-07-24T00:51:42;13.50;;;5.70;;
19251;SDS011;9760;50.944;5.304;2023-07-24T00:54:09;9.43;;;5.13;;
19251;SDS011;9760;50.944;5.304;2023-07-24T00:56:36;13.97;;;5.73;;
19251;SDS011;9760;50.944;5.304;2023-07-24T00:59:02;11.83;;;5.07;;
19251;SDS011;9760;50.944;5.304;2023-07-24T01:01:28;13.50;;;4.87;;
19251;SDS011;9760;50.944;5.304;2023-07-24T01:03:54;12.50;;;5.23;;
19251;SDS011;9760;50.944;5.304;2023-07-24T01:06:23;11.83;;;5.07;;
19251;SDS011;9760;50.944;5.304;2023-07-24T01:08:48;10.33;;;5.20;;
19251;SDS011;9760;50.944;5.304;2023-07-24T01:11:23;10.90;;;5.23;;
19251;SDS011;9760;50.944;5.304;2023-07-24T01:13:56;18.87;;;5.23;;
19251;SDS011;9760;50.944;5.304;2023-07-24T01:16:30;13.17;;;4.70;;
19251;SDS011;9760;50.944;5.304;2023-07-24T01:19:01;18.00;;;5.33;;
19251;SDS011;9760;50.944;5.304;2023-07-24T01:21:38;13.80;;;5.40;;
19251;SDS011;9760;50.944;5.304;2023-07-24T01:24:22;11.27;;;5.47;;
19251;SDS011;9760;50.944;5.304;2023-07-24T01:26:55;13.37;;;6.17;;
19251;SDS011;9760;50.944;5.304;2023-07-24T01:29:20;10.70;;;5.40;;
19251;SDS011;9760;50.944;5.304;2023-07-24T01:31:46;10.40;;;5.33;;
19251;SDS011;9760;50.944;5.304;2023-07-24T01:34:11;11.83;;;6.07;;
19251;SDS011;9760;50.944;5.304;2023-07-24T01:36:37;23.00;;;6.30;;
19251;SDS011;9760;50.944;5.304;2023-07-24T01:39:03;14.00;;;5.27;;
19251;SDS011;9760;50.944;5.304;2023-07-24T01:41:30;18.90;;;6.37;;
19251;SDS011;9760;50.944;5.304;2023-07-24T01:43:58;12.33;;;5.70;;
19251;SDS011;9760;50.944;5.304;2023-07-24T01:46:24;15.43;;;5.40;;
19251;SDS011;9760;50.944;5.304;2023-07-24T01:48:50;11.73;;;5.67;;
19251;SDS011;9760;50.944;5.304;2023-07-24T01:51:17;12.80;;;6.27;;
19251;SDS011;9760;50.944;5.304;2023-07-24T01:53:43;14.20;;;6.57;;
19251;SDS011;9760;50.944;5.304;2023-07-24T01:56:08;18.87;;;6.80;;
19251;SDS011;9760;50.944;5.304;2023-07-24T01:58:34;12.30;;;5.87;;
19251;SDS011;9760;50.944;5.304;2023-07-24T02:00:59;18.57;;;5.90;;
19251;SDS011;9760;50.944;5.304;2023-07-24T02:03:25;11.93;;;6.40;;
19251;SDS011;9760;50.944;5.304;2023-07-24T02:05:51;14.93;;;6.23;;
19251;SDS011;9760;50.944;5.304;2023-07-24T02:08:17;11.37;;;5.80;;
19251;SDS011;9760;50.944;5.304;2023-07-24T02:10:42;16.43;;;6.20;;
19251;SDS011;9760;50.944;5.304;2023-07-24T02:13:08;22.77;;;6.30;;
19251;SDS011;9760;50.944;5.304;2023-07-24T02:15:34;13.97;;;5.73;;
19251;SDS011;9760;50.944;5.304;2023-07-24T02:18:01;13.50;;;6.00;;
19251;SDS011;9760;50.944;5.304;2023-07-24T02:20:26;14.40;;;5.63;;
19251;SDS011;9760;50.944;5.304;2023-07-24T02:22:52;13.80;;;6.03;;
19251;SDS011;9760;50.944;5.304;2023-07-24T02:25:18;14.70;;;5.83;;
19251;SDS011;9760;50.944;5.304;2023-07-24T02:27:43;10.80;;;5.57;;
19251;SDS011;9760;50.944;5.304;2023-07-24T02:30:09;17.37;;;6.03;;
19251;SDS011;9760;50.944;5.304;2023-07-24T02:32:35;12.73;;;6.47;;
19251;SDS011;9760;50.944;5.304;2023-07-24T02:35:01;15.67;;;5.97;;
19251;SDS011;9760;50.944;5.304;2023-07-24T02:37:26;15.73;;;6.70;;
19251;SDS011;9760;50.944;5.304;2023-07-24T02:39:52;16.47;;;6.30;;
19251;SDS011;9760;50.944;5.304;2023-07-24T02:42:18;12.40;;;5.90;;
19251;SDS011;9760;50.944;5.304;2023-07-24T02:44:44;14.30;;;5.87;;
19251;SDS011;9760;50.944;5.304;2023-07-24T02:47:09;13.47;;;6.00;;
19251;SDS011;9760;50.944;5.304;2023-07-24T02:49:35;16.87;;;6.47;;
19251;SDS011;9760;50.944;5.304;2023-07-24T02:52:00;12.23;;;5.73;;
19251;SDS011;9760;50.944;5.304;2023-07-24T02:54:26;11.33;;;6.17;;
19251;SDS011;9760;50.944;5.304;2023-07-24T02:56:52;14.13;;;6.57;;
19251;SDS011;9760;50.944;5.304;2023-07-24T02:59:18;14.40;;;6.47;;
19251;SDS011;9760;50.944;5.304;2023-07-24T03:01:46;19.67;;;6.90;;
19251;SDS011;9760;50.944;5.304;2023-07-24T03:04:12;12.73;;;6.23;;
19251;SDS011;9760;50.944;5.304;2023-07-24T03:06:38;14.47;;;6.40;;
19251;SDS011;9760;50.944;5.304;2023-07-24T03:09:04;16.03;;;6.37;;
19251;SDS011;9760;50.944;5.304;2023-07-24T03:11:30;14.13;;;6.67;;
19251;SDS011;9760;50.944;5.304;2023-07-24T03:13:55;11.73;;;6.60;;
19251;SDS011;9760;50.944;5.304;2023-07-24T03:16:21;14.00;;;6.87;;
19251;SDS011;9760;50.944;5.304;2023-07-24T03:18:47;11.27;;;6.63;;
19251;SDS011;9760;50.944;5.304;2023-07-24T03:21:12;11.40;;;6.83;;
19251;SDS011;9760;50.944;5.304;2023-07-24T03:23:38;12.60;;;6.73;;
19251;SDS011;9760;50.944;5.304;2023-07-24T03:26:04;15.27;;;7.27;;
19251;SDS011;9760;50.944;5.304;2023-07-24T03:28:29;14.33;;;7.40;;
19251;SDS011;9760;50.944;5.304;2023-07-24T03:30:55;16.97;;;7.13;;
19251;SDS011;9760;50.944;5.304;2023-07-24T03:33:21;18.00;;;7.20;;
19251;SDS011;9760;50.944;5.304;2023-07-24T03:35:46;14.93;;;6.93;;
19251;SDS011;9760;50.944;5.304;2023-07-24T03:38:12;16.87;;;7.50;;
19251;SDS011;9760;50.944;5.304;2023-07-24T03:40:37;13.33;;;6.67;;
19251;SDS011;9760;50.944;5.304;2023-07-24T03:43:03;12.17;;;6.70;;
19251;SDS011;9760;50.944;5.304;2023-07-24T03:45:29;19.13;;;7.60;;
19251;SDS011;9760;50.944;5.304;2023-07-24T03:47:54;13.37;;;7.23;;
19251;SDS011;9760;50.944;5.304;2023-07-24T03:50:20;21.97;;;7.60;;
19251;SDS011;9760;50.944;5.304;2023-07-24T03:52:46;15.00;;;7.33;;
19251;SDS011;9760;50.944;5.304;2023-07-24T03:55:11;14.00;;;7.30;;
19251;SDS011;9760;50.944;5.304;2023-07-24T03:57:37;13.27;;;6.83;;
19251;SDS011;9760;50.944;5.304;2023-07-24T04:00:03;13.70;;;7.47;;
19251;SDS011;9760;50.944;5.304;2023-07-24T04:02:29;16.20;;;7.20;;
19251;SDS011;9760;50.944;5.304;2023-07-24T04:04:55;13.63;;;6.70;;
19251;SDS011;9760;50.944;5.304;2023-07-24T04:07:20;15.37;;;6.50;;
19251;SDS011;9760;50.944;5.304;2023-07-24T04:09:46;9.73;;;6.50;;
19251;SDS011;9760;50.944;5.304;2023-07-24T04:12:12;11.57;;;6.67;;
19251;SDS011;9760;50.944;5.304;2023-07-24T04:14:37;17.53;;;7.10;;
19251;SDS011;9760;50.944;5.304;2023-07-24T04:17:03;11.40;;;6.13;;
19251;SDS011;9760;50.944;5.304;2023-07-24T04:19:29;10.27;;;5.80;;
19251;SDS011;9760;50.944;5.304;2023-07-24T04:21:54;11.20;;;6.17;;
19251;SDS011;9760;50.944;5.304;2023-07-24T04:24:20;13.70;;;6.23;;
19251;SDS011;9760;50.944;5.304;2023-07-24T04:26:45;10.43;;;6.27;;
19251;SDS011;9760;50.944;5.304;2023-07-24T04:29:11;13.83;;;5.50;;
19251;SDS011;9760;50.944;5.304;2023-07-24T04:31:37;14.90;;;5.50;;
19251;SDS011;9760;50.944;5.304;2023-07-24T04:34:02;14.67;;;6.23;;
19251;SDS011;9760;50.944;5.304;2023-07-24T04:36:28;12.53;;;5.70;;
19251;SDS011;9760;50.944;5.304;2023-07-24T04:38:53;11.33;;;5.70;;
19251;SDS011;9760;50.944;5.304;2023-07-24T04:41:19;10.03;;;6.17;;
19251;SDS011;9760;50.944;5.304;2023-07-24T04:43:45;13.47;;;5.40;;
19251;SDS011;9760;50.944;5.304;2023-07-24T04:46:10;8.70;;;5.30;;
19251;SDS011;9760;50.944;5.304;2023-07-24T04:48:36;11.00;;;5.27;;
19251;SDS011;9760;50.944;5.304;2023-07-24T04:51:01;8.77;;;5.10;;
19251;SDS011;9760;50.944;5.304;2023-07-24T04:53:27;12.57;;;5.33;;
19251;SDS011;9760;50.944;5.304;2023-07-24T04:55:53;12.00;;;4.80;;
19251;SDS011;9760;50.944;5.304;2023-07-24T04:58:19;7.03;;;3.97;;
19251;SDS011;9760;50.944;5.304;2023-07-24T05:00:44;6.50;;;3.80;;
19251;SDS011;9760;50.944;5.304;2023-07-24T05:03:10;6.57;;;3.40;;
19251;SDS011;9760;50.944;5.304;2023-07-24T05:05:39;4.13;;;2.90;;
19251;SDS011;9760;50.944;5.304;2023-07-24T05:08:05;6.40;;;3.90;;
19251;SDS011;9760;50.944;5.304;2023-07-24T05:10:34;8.30;;;4.53;;
19251;SDS011;9760;50.944;5.304;2023-07-24T05:13:00;5.77;;;3.40;;
19251;SDS011;9760;50.944;5.304;2023-07-24T05:15:26;6.00;;;3.63;;
19251;SDS011;9760;50.944;5.304;2023-07-24T05:17:51;5.63;;;3.43;;
19251;SDS011;9760;50.944;5.304;2023-07-24T05:20:17;5.07;;;3.23;;
19251;SDS011;9760;50.944;5.304;2023-07-24T05:22:43;7.13;;;3.23;;
19251;SDS011;9760;50.944;5.304;2023-07-24T05:25:08;5.40;;;3.13;;
19251;SDS011;9760;50.944;5.304;2023-07-24T05:27:34;5.73;;;3.20;;
19251;SDS011;9760;50.944;5.304;2023-07-24T05:30:00;3.27;;;2.90;;
19251;SDS011;9760;50.944;5.304;2023-07-24T05:32:26;10.27;;;3.67;;
19251;SDS011;9760;50.944;5.304;2023-07-24T05:34:51;7.93;;;3.40;;
19251;SDS011;9760;50.944;5.304;2023-07-24T05:37:17;4.33;;;3.37;;
19251;SDS011;9760;50.944;5.304;2023-07-24T05:39:42;4.53;;;3.07;;
19251;SDS011;9760;50.944;5.304;2023-07-24T05:42:08;6.40;;;2.70;;
19251;SDS011;9760;50.944;5.304;2023-07-24T05:44:35;3.93;;;3.53;;
19251;SDS011;9760;50.944;5.304;2023-07-24T05:47:02;5.70;;;3.90;;
19251;SDS011;9760;50.944;5.304;2023-07-24T05:49:28;6.20;;;4.13;;
19251;SDS011;9760;50.944;5.304;2023-07-24T05:51:53;7.43;;;4.00;;
19251;SDS011;9760;50.944;5.304;2023-07-24T05:54:19;7.00;;;4.10;;
19251;SDS011;9760;50.944;5.304;2023-07-24T05:56:45;9.50;;;3.60;;
19251;SDS011;9760;50.944;5.304;2023-07-24T05:59:10;6.83;;;3.30;;
19251;SDS011;9760;50.944;5.304;2023-07-24T06:01:36;6.13;;;3.10;;
19251;SDS011;9760;50.944;5.304;2023-07-24T06:04:02;6.93;;;3.83;;
19251;SDS011;9760;50.944;5.304;2023-07-24T06:06:27;6.40;;;3.90;;
19251;SDS011;9760;50.944;5.304;2023-07-24T06:08:53;6.30;;;3.60;;
19251;SDS011;9760;50.944;5.304;2023-07-24T06:11:18;8.17;;;3.67;;
19251;SDS011;9760;50.944;5.304;2023-07-24T06:13:44;4.07;;;3.10;;
19251;SDS011;9760;50.944;5.304;2023-07-24T06:16:10;9.90;;;3.87;;
19251;SDS011;9760;50.944;5.304;2023-07-24T06:18:37;8.30;;;4.50;;
19251;SDS011;9760;50.944;5.304;2023-07-24T06:21:03;8.23;;;3.40;;
19251;SDS011;9760;50.944;5.304;2023-07-24T06:23:28;7.40;;;3.43;;
19251;SDS011;9760;50.944;5.304;2023-07-24T06:25:54;5.73;;;3.07;;
19251;SDS011;9760;50.944;5.304;2023-07-24T06:28:20;3.67;;;2.90;;
19251;SDS011;9760;50.944;5.304;2023-07-24T06:30:46;9.77;;;3.50;;
19251;SDS011;9760;50.944;5.304;2023-07-24T06:33:11;6.67;;;3.73;;
19251;SDS011;9760;50.944;5.304;2023-07-24T06:35:37;6.97;;;3.73;;
19251;SDS011;9760;50.944;5.304;2023-07-24T06:38:03;8.27;;;4.30;;
19251;SDS011;9760;50.944;5.304;2023-07-24T06:40:28;7.60;;;4.80;;
19251;SDS011;9760;50.944;5.304;2023-07-24T06:42:54;9.43;;;4.67;;
19251;SDS011;9760;50.944;5.304;2023-07-24T06:45:20;7.07;;;3.50;;
19251;SDS011;9760;50.944;5.304;2023-07-24T06:47:45;6.60;;;3.20;;
19251;SDS011;9760;50.944;5.304;2023-07-24T06:50:11;7.57;;;3.27;;
19251;SDS011;9760;50.944;5.304;2023-07-24T06:52:36;7.70;;;3.03;;
19251;SDS011;9760;50.944;5.304;2023-07-24T06:55:02;3.80;;;2.53;;
19251;SDS011;9760;50.944;5.304;2023-07-24T06:57:28;4.27;;;3.33;;
19251;SDS011;9760;50.944;5.304;2023-07-24T06:59:54;6.50;;;3.13;;
19251;SDS011;9760;50.944;5.304;2023-07-24T07:02:19;4.03;;;3.30;;
19251;SDS011;9760;50.944;5.304;2023-07-24T07:04:45;5.50;;;3.30;;
19251;SDS011;9760;50.944;5.304;2023-07-24T07:07:11;4.03;;;3.20;;
19251;SDS011;9760;50.944;5.304;2023-07-24T07:09:36;4.80;;;3.43;;
19251;SDS011;9760;50.944;5.304;2023-07-24T07:12:02;4.37;;;3.30;;
19251;SDS011;9760;50.944;5.304;2023-07-24T07:14:28;4.80;;;3.07;;
19251;SDS011;9760;50.944;5.304;2023-07-24T07:16:53;12.17;;;5.80;;
19251;SDS011;9760;50.944;5.304;2023-07-24T07:19:19;4.40;;;3.20;;
19251;SDS011;9760;50.944;5.304;2023-07-24T07:21:44;7.47;;;3.10;;
19251;SDS011;9760;50.944;5.304;2023-07-24T07:24:10;4.10;;;3.07;;
19251;SDS011;9760;50.944;5.304;2023-07-24T07:26:36;6.00;;;4.10;;
19251;SDS011;9760;50.944;5.304;2023-07-24T07:29:01;4.50;;;3.23;;
19251;SDS011;9760;50.944;5.304;2023-07-24T07:31:27;5.47;;;2.87;;
19251;SDS011;9760;50.944;5.304;2023-07-24T07:33:52;4.33;;;2.50;;
19251;SDS011;9760;50.944;5.304;2023-07-24T07:36:18;5.60;;;2.50;;
19251;SDS011;9760;50.944;5.304;2023-07-24T07:38:44;5.17;;;2.17;;
19251;SDS011;9760;50.944;5.304;2023-07-24T07:41:09;4.50;;;2.30;;
19251;SDS011;9760;50.944;5.304;2023-07-24T07:43:35;2.77;;;2.10;;
19251;SDS011;9760;50.944;5.304;2023-07-24T07:46:02;2.60;;;1.83;;
19251;SDS011;9760;50.944;5.304;2023-07-24T07:48:28;3.23;;;1.90;;
19251;SDS011;9760;50.944;5.304;2023-07-24T07:50:54;4.43;;;1.93;;
19251;SDS011;9760;50.944;5.304;2023-07-24T07:53:19;2.77;;;1.77;;
19251;SDS011;9760;50.944;5.304;2023-07-24T07:55:45;2.83;;;1.43;;
19251;SDS011;9760;50.944;5.304;2023-07-24T07:58:11;4.87;;;1.97;;
19251;SDS011;9760;50.944;5.304;2023-07-24T08:00:37;2.70;;;1.37;;
19251;SDS011;9760;50.944;5.304;2023-07-24T08:03:06;3.03;;;1.60;;
19251;SDS011;9760;50.944;5.304;2023-07-24T08:05:31;2.73;;;1.47;;
19251;SDS011;9760;50.944;5.304;2023-07-24T08:07:57;4.20;;;1.57;;
19251;SDS011;9760;50.944;5.304;2023-07-24T08:10:23;1.77;;;1.40;;
19251;SDS011;9760;50.944;5.304;2023-07-24T08:12:49;3.67;;;1.60;;
19251;SDS011;9760;50.944;5.304;2023-07-24T08:15:15;3.53;;;1.70;;
19251;SDS011;9760;50.944;5.304;2023-07-24T08:17:40;2.57;;;1.50;;
19251;SDS011;9760;50.944;5.304;2023-07-24T08:20:06;2.73;;;1.80;;
19251;SDS011;9760;50.944;5.304;2023-07-24T08:22:32;3.90;;;1.80;;
19251;SDS011;9760;50.944;5.304;2023-07-24T08:24:58;1.97;;;1.53;;
19251;SDS011;9760;50.944;5.304;2023-07-24T08:27:24;3.20;;;2.00;;
19251;SDS011;9760;50.944;5.304;2023-07-24T08:29:52;2.90;;;2.10;;
19251;SDS011;9760;50.944;5.304;2023-07-24T08:32:18;4.73;;;1.80;;
19251;SDS011;9760;50.944;5.304;2023-07-24T08:34:44;5.03;;;1.83;;
19251;SDS011;9760;50.944;5.304;2023-07-24T08:37:11;3.20;;;1.80;;
19251;SDS011;9760;50.944;5.304;2023-07-24T08:39:36;5.23;;;1.70;;
19251;SDS011;9760;50.944;5.304;2023-07-24T08:42:10;2.10;;;1.80;;
19251;SDS011;9760;50.944;5.304;2023-07-24T08:44:37;2.17;;;1.70;;
19251;SDS011;9760;50.944;5.304;2023-07-24T08:47:03;3.00;;;1.63;;
19251;SDS011;9760;50.944;5.304;2023-07-24T08:49:31;4.63;;;2.10;;
19251;SDS011;9760;50.944;5.304;2023-07-24T08:51:58;4.23;;;2.30;;
19251;SDS011;9760;50.944;5.304;2023-07-24T08:54:26;2.57;;;2.00;;
19251;SDS011;9760;50.944;5.304;2023-07-24T08:56:52;2.90;;;1.70;;
19251;SDS011;9760;50.944;5.304;2023-07-24T08:59:19;4.00;;;1.90;;
19251;SDS011;9760;50.944;5.304;2023-07-24T09:01:44;4.40;;;2.00;;
19251;SDS011;9760;50.944;5.304;2023-07-24T09:04:10;3.23;;;1.80;;
19251;SDS011;9760;50.944;5.304;2023-07-24T09:06:36;2.50;;;1.90;;
19251;SDS011;9760;50.944;5.304;2023-07-24T09:09:11;2.77;;;2.00;;
19251;SDS011;9760;50.944;5.304;2023-07-24T09:11:51;4.07;;;2.27;;
19251;SDS011;9760;50.944;5.304;2023-07-24T09:17:05;4.27;;;2.30;;
19251;SDS011;9760;50.944;5.304;2023-07-24T09:19:35;5.33;;;2.20;;
19251;SDS011;9760;50.944;5.304;2023-07-24T09:22:13;3.40;;;2.10;;
19251;SDS011;9760;50.944;5.304;2023-07-24T09:24:53;3.73;;;2.00;;
19251;SDS011;9760;50.944;5.304;2023-07-24T09:27:26;6.67;;;2.73;;
19251;SDS011;9760;50.944;5.304;2023-07-24T09:29:53;3.80;;;2.40;;
19251;SDS011;9760;50.944;5.304;2023-07-24T09:32:24;5.53;;;2.93;;
19251;SDS011;9760;50.944;5.304;2023-07-24T09:34:50;3.57;;;2.40;;
19251;SDS011;9760;50.944;5.304;2023-07-24T09:37:37;8.10;;;3.20;;
19251;SDS011;9760;50.944;5.304;2023-07-24T09:40:05;8.97;;;3.30;;
19251;SDS011;9760;50.944;5.304;2023-07-24T09:42:32;6.90;;;3.33;;
19251;SDS011;9760;50.944;5.304;2023-07-24T09:45:00;8.30;;;3.60;;
19251;SDS011;9760;50.944;5.304;2023-07-24T09:47:29;5.53;;;3.43;;
19251;SDS011;9760;50.944;5.304;2023-07-24T09:49:55;18.50;;;4.67;;
19251;SDS011;9760;50.944;5.304;2023-07-24T09:52:20;15.67;;;3.80;;
19251;SDS011;9760;50.944;5.304;2023-07-24T09:55:29;16.70;;;3.43;;
19251;SDS011;9760;50.944;5.304;2023-07-24T09:57:36;34.20;;;6.23;;
19251;SDS011;9760;50.944;5.304;2023-07-24T10:00:02;16.53;;;4.60;;
19251;SDS011;9760;50.944;5.304;2023-07-24T10:02:29;39.37;;;6.27;;
19251;SDS011;9760;50.944;5.304;2023-07-24T10:04:55;8.30;;;2.77;;
19251;SDS011;9760;50.944;5.304;2023-07-24T10:07:22;4.83;;;1.80;;
19251;SDS011;9760;50.944;5.304;2023-07-24T10:09:49;4.73;;;1.73;;
19251;SDS011;9760;50.944;5.304;2023-07-24T10:12:19;1.87;;;1.03;;
19251;SDS011;9760;50.944;5.304;2023-07-24T10:14:46;3.60;;;1.43;;
19251;SDS011;9760;50.944;5.304;2023-07-24T10:17:12;4.13;;;1.50;;
19251;SDS011;9760;50.944;5.304;2023-07-24T10:19:42;2.13;;;1.00;;
19251;SDS011;9760;50.944;5.304;2023-07-24T10:22:08;3.00;;;1.63;;
19251;SDS011;9760;50.944;5.304;2023-07-24T10:24:46;2.83;;;1.27;;
19251;SDS011;9760;50.944;5.304;2023-07-24T10:27:12;2.47;;;1.30;;
19251;SDS011;9760;50.944;5.304;2023-07-24T10:29:38;1.73;;;0.90;;
19251;SDS011;9760;50.944;5.304;2023-07-24T10:32:04;2.13;;;1.20;;
19251;SDS011;9760;50.944;5.304;2023-07-24T10:34:43;1.30;;;1.00;;
19251;SDS011;9760;50.944;5.304;2023-07-24T10:37:09;1.63;;;1.40;;
19251;SDS011;9760;50.944;5.304;2023-07-24T10:39:41;2.33;;;1.60;;
19251;SDS011;9760;50.944;5.304;2023-07-24T10:42:07;2.60;;;1.50;;
19251;SDS011;9760;50.944;5.304;2023-07-24T10:44:34;1.73;;;1.60;;
19251;SDS011;9760;50.944;5.304;2023-07-24T10:47:00;1.60;;;1.23;;
19251;SDS011;9760;50.944;5.304;2023-07-24T10:49:26;3.10;;;1.63;;
19251;SDS011;9760;50.944;5.304;2023-07-24T10:51:56;4.30;;;1.77;;
19251;SDS011;9760;50.944;5.304;2023-07-24T10:54:22;2.50;;;1.60;;
19251;SDS011;9760;50.944;5.304;2023-07-24T10:56:48;2.97;;;1.70;;
19251;SDS011;9760;50.944;5.304;2023-07-24T10:59:13;3.53;;;1.43;;
19251;SDS011;9760;50.944;5.304;2023-07-24T11:01:39;3.30;;;2.33;;
19251;SDS011;9760;50.944;5.304;2023-07-24T11:04:06;5.40;;;2.10;;
19251;SDS011;9760;50.944;5.304;2023-07-24T11:06:32;2.27;;;1.63;;
19251;SDS011;9760;50.944;5.304;2023-07-24T11:08:59;3.80;;;2.00;;
19251;SDS011;9760;50.944;5.304;2023-07-24T11:11:31;4.90;;;2.13;;
19251;SDS011;9760;50.944;5.304;2023-07-24T11:13:58;2.93;;;2.03;;
19251;SDS011;9760;50.944;5.304;2023-07-24T11:16:26;6.40;;;2.27;;
19251;SDS011;9760;50.944;5.304;2023-07-24T11:18:52;5.43;;;2.20;;
19251;SDS011;9760;50.944;5.304;2023-07-24T11:21:18;4.53;;;2.40;;
19251;SDS011;9760;50.944;5.304;2023-07-24T11:23:44;4.27;;;2.50;;
19251;SDS011;9760;50.944;5.304;2023-07-24T11:26:14;4.43;;;2.40;;
19251;SDS011;9760;50.944;5.304;2023-07-24T11:28:40;5.50;;;2.60;;
19251;SDS011;9760;50.944;5.304;2023-07-24T11:31:06;6.17;;;2.83;;
19251;SDS011;9760;50.944;5.304;2023-07-24T11:33:32;4.50;;;2.40;;
19251;SDS011;9760;50.944;5.304;2023-07-24T11:35:59;6.63;;;2.50;;
19251;SDS011;9760;50.944;5.304;2023-07-24T11:38:24;4.00;;;2.63;;
19251;SDS011;9760;50.944;5.304;2023-07-24T11:40:50;4.67;;;2.47;;
19251;SDS011;9760;50.944;5.304;2023-07-24T11:43:21;4.20;;;2.17;;
19251;SDS011;9760;50.944;5.304;2023-07-24T11:45:48;4.47;;;2.13;;
19251;SDS011;9760;50.944;5.304;2023-07-24T11:48:17;2.67;;;1.80;;
19251;SDS011;9760;50.944;5.304;2023-07-24T11:50:47;4.10;;;2.10;;
19251;SDS011;9760;50.944;5.304;2023-07-24T11:53:18;3.53;;;2.13;;
19251;SDS011;9760;50.944;5.304;2023-07-24T11:55:55;3.53;;;2.50;;
19251;SDS011;9760;50.944;5.304;2023-07-24T11:58:25;6.80;;;2.30;;
19251;SDS011;9760;50.944;5.304;2023-07-24T12:00:51;4.33;;;2.50;;
19251;SDS011;9760;50.944;5.304;2023-07-24T12:03:24;3.60;;;2.33;;
19251;SDS011;9760;50.944;5.304;2023-07-24T12:05:51;5.67;;;2.40;;
19251;SDS011;9760;50.944;5.304;2023-07-24T12:08:28;5.90;;;2.77;;
19251;SDS011;9760;50.944;5.304;2023-07-24T12:10:55;3.00;;;2.07;;
19251;SDS011;9760;50.944;5.304;2023-07-24T12:13:21;2.83;;;2.03;;
19251;SDS011;9760;50.944;5.304;2023-07-24T12:15:47;3.23;;;2.27;;
19251;SDS011;9760;50.944;5.304;2023-07-24T12:18:13;3.30;;;2.23;;
19251;SDS011;9760;50.944;5.304;2023-07-24T12:20:39;3.60;;;1.67;;
19251;SDS011;9760;50.944;5.304;2023-07-24T12:23:05;3.80;;;1.93;;
19251;SDS011;9760;50.944;5.304;2023-07-24T12:25:30;5.60;;;2.37;;
19251;SDS011;9760;50.944;5.304;2023-07-24T12:27:56;5.20;;;1.80;;
19251;SDS011;9760;50.944;5.304;2023-07-24T12:30:22;2.67;;;1.97;;
19251;SDS011;9760;50.944;5.304;2023-07-24T12:32:47;2.30;;;1.93;;
19251;SDS011;9760;50.944;5.304;2023-07-24T12:35:13;4.47;;;1.80;;
19251;SDS011;9760;50.944;5.304;2023-07-24T12:37:40;3.30;;;1.70;;
19251;SDS011;9760;50.944;5.304;2023-07-24T12:40:07;3.10;;;1.67;;
19251;SDS011;9760;50.944;5.304;2023-07-24T12:42:33;3.37;;;1.80;;
19251;SDS011;9760;50.944;5.304;2023-07-24T12:44:59;2.87;;;2.10;;
19251;SDS011;9760;50.944;5.304;2023-07-24T12:47:24;3.40;;;2.30;;
19251;SDS011;9760;50.944;5.304;2023-07-24T12:49:50;3.37;;;2.07;;
19251;SDS011;9760;50.944;5.304;2023-07-24T12:52:17;2.90;;;2.27;;
19251;SDS011;9760;50.944;5.304;2023-07-24T12:54:43;5.80;;;2.07;;
19251;SDS011;9760;50.944;5.304;2023-07-24T12:57:08;4.57;;;2.43;;
19251;SDS011;9760;50.944;5.304;2023-07-24T12:59:34;4.47;;;2.30;;
19251;SDS011;9760;50.944;5.304;2023-07-24T13:02:00;7.13;;;2.60;;
19251;SDS011;9760;50.944;5.304;2023-07-24T13:04:25;4.27;;;2.80;;
19251;SDS011;9760;50.944;5.304;2023-07-24T13:06:51;4.67;;;2.80;;
19251;SDS011;9760;50.944;5.304;2023-07-24T13:09:17;6.07;;;2.73;;
19251;SDS011;9760;50.944;5.304;2023-07-24T13:11:43;3.47;;;2.50;;
19251;SDS011;9760;50.944;5.304;2023-07-24T13:14:11;3.27;;;2.33;;
19251;SDS011;9760;50.944;5.304;2023-07-24T13:16:36;4.53;;;2.37;;
19251;SDS011;9760;50.944;5.304;2023-07-24T13:19:02;3.87;;;2.50;;
19251;SDS011;9760;50.944;5.304;2023-07-24T13:21:28;2.70;;;2.30;;
19251;SDS011;9760;50.944;5.304;2023-07-24T13:23:53;4.47;;;2.47;;
19251;SDS011;9760;50.944;5.304;2023-07-24T13:26:20;5.40;;;2.30;;
19251;SDS011;9760;50.944;5.304;2023-07-24T13:28:46;4.57;;;2.50;;
19251;SDS011;9760;50.944;5.304;2023-07-24T13:31:15;3.57;;;2.20;;
19251;SDS011;9760;50.944;5.304;2023-07-24T13:33:42;3.50;;;2.30;;
19251;SDS011;9760;50.944;5.304;2023-07-24T13:36:08;3.97;;;1.80;;
19251;SDS011;9760;50.944;5.304;2023-07-24T13:38:34;5.03;;;2.10;;
19251;SDS011;9760;50.944;5.304;2023-07-24T13:41:00;3.77;;;2.10;;
19251;SDS011;9760;50.944;5.304;2023-07-24T13:43:26;3.73;;;2.50;;
19251;SDS011;9760;50.944;5.304;2023-07-24T13:45:53;4.93;;;2.50;;
19251;SDS011;9760;50.944;5.304;2023-07-24T13:48:18;4.43;;;2.27;;
19251;SDS011;9760;50.944;5.304;2023-07-24T13:50:44;3.87;;;2.63;;
19251;SDS011;9760;50.944;5.304;2023-07-24T13:53:09;4.47;;;2.60;;
19251;SDS011;9760;50.944;5.304;2023-07-24T13:55:35;3.63;;;2.20;;
19251;SDS011;9760;50.944;5.304;2023-07-24T13:58:01;5.60;;;2.53;;
19251;SDS011;9760;50.944;5.304;2023-07-24T14:00:26;7.83;;;2.80;;
19251;SDS011;9760;50.944;5.304;2023-07-24T14:02:52;3.30;;;2.20;;
19251;SDS011;9760;50.944;5.304;2023-07-24T14:05:18;7.50;;;2.63;;
19251;SDS011;9760;50.944;5.304;2023-07-24T14:07:43;3.20;;;2.50;;
19251;SDS011;9760;50.944;5.304;2023-07-24T14:10:09;5.20;;;2.50;;
19251;SDS011;9760;50.944;5.304;2023-07-24T14:12:35;4.23;;;2.40;;
19251;SDS011;9760;50.944;5.304;2023-07-24T14:15:01;5.27;;;3.07;;
19251;SDS011;9760;50.944;5.304;2023-07-24T14:17:27;5.10;;;2.80;;
19251;SDS011;9760;50.944;5.304;2023-07-24T14:19:53;6.37;;;2.63;;
19251;SDS011;9760;50.944;5.304;2023-07-24T14:22:19;4.53;;;2.77;;
19251;SDS011;9760;50.944;5.304;2023-07-24T14:24:44;8.17;;;2.90;;
19251;SDS011;9760;50.944;5.304;2023-07-24T14:27:11;5.03;;;2.80;;
19251;SDS011;9760;50.944;5.304;2023-07-24T14:29:37;6.30;;;2.97;;
19251;SDS011;9760;50.944;5.304;2023-07-24T14:32:03;5.83;;;3.10;;
19251;SDS011;9760;50.944;5.304;2023-07-24T14:34:30;6.23;;;3.00;;
19251;SDS011;9760;50.944;5.304;2023-07-24T14:36:55;5.43;;;3.00;;
19251;SDS011;9760;50.944;5.304;2023-07-24T14:39:21;7.43;;;3.20;;
19251;SDS011;9760;50.944;5.304;2023-07-24T14:41:46;4.83;;;3.27;;
19251;SDS011;9760;50.944;5.304;2023-07-24T14:44:12;5.37;;;3.37;;
19251;SDS011;9760;50.944;5.304;2023-07-24T14:46:37;5.17;;;3.13;;
19251;SDS011;9760;50.944;5.304;2023-07-24T14:49:03;5.50;;;3.10;;
19251;SDS011;9760;50.944;5.304;2023-07-24T14:51:29;7.23;;;3.30;;
19251;SDS011;9760;50.944;5.304;2023-07-24T14:53:55;8.77;;;3.00;;
19251;SDS011;9760;50.944;5.304;2023-07-24T14:56:20;4.77;;;2.53;;